Eurocargo Valencia — IBGZ — position and weather

sailwx.info

Track history (hours):
 
Tides and Currents Weather Stations Pressure Air Temp Water Temp Dewpoint Dewpoint Depression Visibility Wind Speed Wind Dir Waves Ship Positions

Eurocargo Valencia

Last reported at 2015-Jul-05 16:03 UTC. Time now 2015-Jul-07 15:25 UTC.
Position N 39°27' E 019°16'.

Length 196 m; draft 6.3 m.

Type: Cargo ship. MMSI: 247579000.

Date/timePositionNaut miles runAvg speedWind from/ knotsBaromVisibWave heightAir tempDewpointWater temp
2015-Jul-05 16:03N 39°27' E 019°16'815.1
2015-Jul-05 15:32N 39°20' E 019°21'1514.9
2015-Jul-05 14:33N 39°08' E 019°31'2214.9
2015-Jul-05 13:04N 38°49' E 019°45'2315.3
2015-Jul-05 11:33N 38°28' E 019°60'2215.1
2015-Jul-05 10:04N 38°09' E 020°15'51814.2
2015-Jul-03 21:33N 34°20' E 029°51'1514.6
2015-Jul-03 20:33N 34°15' E 030°07'2914.7
2015-Jul-03 18:32N 34°05' E 030°41'1514.9
2015-Jul-03 17:32N 33°59' E 030°58'1814.8
2015-Jul-03 16:17N 33°53' E 031°18'1514.6
2015-Jul-03 15:16N 33°48' E 031°35'1014.2
2015-Jul-03 14:33N 33°44' E 031°47'1414.0
2015-Jul-03 13:33N 33°40' E 032°03'1514.0
2015-Jul-03 12:30N 33°35' E 032°19'1314.0
2015-Jul-03 11:34N 33°30' E 032°34'1414.2
2015-Jul-03 10:33N 33°25' E 032°50'3014.5
2015-Jul-03 08:32N 33°14' E 033°23'1414.6
2015-Jul-03 07:33N 33°09' E 033°39'71 6.8
2015-Jul-02 21:12N 32°50' E 034°60'7 1.8
2015-Jul-02 17:26N 32°54' E 034°53'1314.8
2015-Jul-02 16:33N 32°56' E 034°38'1514.9
2015-Jul-02 15:33N 32°60' E 034°21'1514.8
2015-Jul-02 14:33N 33°02' E 034°03'1414.1
2015-Jul-02 13:33N 32°59' E 033°47'1514.7
2015-Jul-02 12:33N 32°52' E 033°31'1514.9
2015-Jul-02 11:33N 32°46' E 033°15'3315.0
2015-Jul-02 09:22N 32°34' E 032°39'1315.1
2015-Jul-02 08:32N 32°29' E 032°26'1414.4
2015-Jul-02 07:33N 32°25' E 032°09'4614.7
2015-Jul-02 04:24N 32°10' E 031°17'1414.8
2015-Jul-02 03:26N 32°05' E 031°02'  
2015-Jun-29 14:10N 35°26' E 023°05'  
Track history (hours):
 
Tides and Currents Weather Stations Pressure Air Temp Water Temp Dewpoint Dewpoint Depression Visibility Wind Speed Wind Dir Waves Ship Positions

Eurocargo Valencia

Last reported at 2015-Jul-05 16:03 UTC. Time now 2015-Jul-07 15:25 UTC.
Position N 39°27' E 019°16'.

Length 196 m; draft 6.3 m.

Type: Cargo ship. MMSI: 247579000.

Date/timePositionNaut miles runAvg speedWind from/ knotsBaromVisibWave heightAir tempDewpointWater temp
2015-Jul-05 16:03N 39°27' E 019°16'815.1
2015-Jul-05 15:32N 39°20' E 019°21'1514.9
2015-Jul-05 14:33N 39°08' E 019°31'2214.9
2015-Jul-05 13:04N 38°49' E 019°45'2315.3
2015-Jul-05 11:33N 38°28' E 019°60'2215.1
2015-Jul-05 10:04N 38°09' E 020°15'51814.2
2015-Jul-03 21:33N 34°20' E 029°51'1514.6
2015-Jul-03 20:33N 34°15' E 030°07'2914.7
2015-Jul-03 18:32N 34°05' E 030°41'1514.9
2015-Jul-03 17:32N 33°59' E 030°58'1814.8
2015-Jul-03 16:17N 33°53' E 031°18'1514.6
2015-Jul-03 15:16N 33°48' E 031°35'1014.2
2015-Jul-03 14:33N 33°44' E 031°47'1414.0
2015-Jul-03 13:33N 33°40' E 032°03'1514.0
2015-Jul-03 12:30N 33°35' E 032°19'1314.0
2015-Jul-03 11:34N 33°30' E 032°34'1414.2
2015-Jul-03 10:33N 33°25' E 032°50'3014.5
2015-Jul-03 08:32N 33°14' E 033°23'1414.6
2015-Jul-03 07:33N 33°09' E 033°39'71 6.8
2015-Jul-02 21:12N 32°50' E 034°60'7 1.8
2015-Jul-02 17:26N 32°54' E 034°53'1314.8
2015-Jul-02 16:33N 32°56' E 034°38'1514.9
2015-Jul-02 15:33N 32°60' E 034°21'1514.8
2015-Jul-02 14:33N 33°02' E 034°03'1414.1
2015-Jul-02 13:33N 32°59' E 033°47'1514.7
2015-Jul-02 12:33N 32°52' E 033°31'1514.9
2015-Jul-02 11:33N 32°46' E 033°15'3315.0
2015-Jul-02 09:22N 32°34' E 032°39'1315.1
2015-Jul-02 08:32N 32°29' E 032°26'1414.4
2015-Jul-02 07:33N 32°25' E 032°09'4614.7
2015-Jul-02 04:24N 32°10' E 031°17'1414.8
2015-Jul-02 03:26N 32°05' E 031°02'  
2015-Jun-29 14:10N 35°26' E 023°05'  

Dump ship's entire track history